sensor_id;sensor_type;location;lat;lon;timestamp;pressure;altitude;pressure_sealevel;temperature;humidity
24666;BME280;29726;53.532;-1.478;2022-11-15T00:01:59;98860.94;;;15.68;nan
24666;BME280;29726;53.532;-1.478;2022-11-15T00:04:25;98860.94;;;15.68;nan
24666;BME280;29726;53.532;-1.478;2022-11-15T00:06:50;98863.75;;;15.68;nan
24666;BME280;29726;53.532;-1.478;2022-11-15T00:09:15;98860.16;;;15.67;nan
24666;BME280;29726;53.532;-1.478;2022-11-15T00:11:41;98860.16;;;15.67;nan
24666;BME280;29726;53.532;-1.478;2022-11-15T00:14:06;98852.03;;;15.64;nan
24666;BME280;29726;53.532;-1.478;2022-11-15T00:16:31;98853.81;;;15.67;nan
24666;BME280;29726;53.532;-1.478;2022-11-15T00:18:57;98859.44;;;15.67;nan
24666;BME280;29726;53.532;-1.478;2022-11-15T00:21:23;98856.63;;;15.67;nan
24666;BME280;29726;53.532;-1.478;2022-11-15T00:23:48;98846.63;;;15.66;nan
24666;BME280;29726;53.532;-1.478;2022-11-15T00:26:14;98843.06;;;15.65;nan
24666;BME280;29726;53.532;-1.478;2022-11-15T00:28:40;98842.31;;;15.65;nan
24666;BME280;29726;53.532;-1.478;2022-11-15T00:31:09;98826.31;;;15.60;nan
24666;BME280;29726;53.532;-1.478;2022-11-15T00:33:35;98828.03;;;15.63;nan
24666;BME280;29726;53.532;-1.478;2022-11-15T00:36:02;98823.69;;;15.62;nan
24666;BME280;29726;53.532;-1.478;2022-11-15T00:38:35;98814.84;;;15.58;nan
24666;BME280;29726;53.532;-1.478;2022-11-15T00:41:03;98807.91;;;15.59;nan
24666;BME280;29726;53.532;-1.478;2022-11-15T00:43:29;98811.72;;;15.61;nan
24666;BME280;29726;53.532;-1.478;2022-11-15T00:45:54;98796.25;;;15.55;nan
24666;BME280;29726;53.532;-1.478;2022-11-15T00:48:20;98797.53;;;15.54;nan
24666;BME280;29726;53.532;-1.478;2022-11-15T00:50:45;98797.22;;;15.57;nan
24666;BME280;29726;53.532;-1.478;2022-11-15T00:53:11;98799.06;;;15.55;nan
24666;BME280;29726;53.532;-1.478;2022-11-15T00:55:36;98797.53;;;15.54;nan
24666;BME280;29726;53.532;-1.478;2022-11-15T00:58:02;98794.72;;;15.54;nan
24666;BME280;29726;53.532;-1.478;2022-11-15T01:00:27;98789.63;;;15.52;nan
24666;BME280;29726;53.532;-1.478;2022-11-15T01:02:53;98787.38;;;15.51;nan
24666;BME280;29726;53.532;-1.478;2022-11-15T01:05:18;98774.41;;;15.48;nan
24666;BME280;29726;53.532;-1.478;2022-11-15T01:07:44;98776.44;;;15.47;nan
24666;BME280;29726;53.532;-1.478;2022-11-15T01:10:09;98772.13;;;15.46;nan
24666;BME280;29726;53.532;-1.478;2022-11-15T01:12:35;98770.63;;;15.45;nan
24666;BME280;29726;53.532;-1.478;2022-11-15T01:15:01;98771.19;;;15.44;nan
24666;BME280;29726;53.532;-1.478;2022-11-15T01:17:27;98768.13;;;15.42;nan
24666;BME280;29726;53.532;-1.478;2022-11-15T01:19:52;98746.28;;;15.35;nan
24666;BME280;29726;53.532;-1.478;2022-11-15T01:22:18;98760.78;;;15.39;nan
24666;BME280;29726;53.532;-1.478;2022-11-15T01:24:43;98759.25;;;15.38;nan
24666;BME280;29726;53.532;-1.478;2022-11-15T01:27:08;98745.75;;;15.36;nan
24666;BME280;29726;53.532;-1.478;2022-11-15T01:29:34;98746.84;;;15.33;nan
24666;BME280;29726;53.532;-1.478;2022-11-15T01:31:59;98747.59;;;15.34;nan
24666;BME280;29726;53.532;-1.478;2022-11-15T01:34:25;98737.44;;;15.31;nan
24666;BME280;29726;53.532;-1.478;2022-11-15T01:36:50;98737.44;;;15.31;nan
24666;BME280;29726;53.532;-1.478;2022-11-15T01:39:16;98734.41;;;15.29;nan
24666;BME280;29726;53.532;-1.478;2022-11-15T01:41:42;98735.78;;;15.22;nan
24666;BME280;29726;53.532;-1.478;2022-11-15T01:47:49;98718.19;;;15.22;nan
24666;BME280;29726;53.532;-1.478;2022-11-15T01:50:20;98713.41;;;15.17;nan
24666;BME280;29726;53.532;-1.478;2022-11-15T01:52:47;98711.38;;;15.17;nan
24666;BME280;29726;53.532;-1.478;2022-11-15T01:55:19;98707.03;;;15.16;nan
24666;BME280;29726;53.532;-1.478;2022-11-15T01:57:50;98693.88;;;15.11;nan
24666;BME280;29726;53.532;-1.478;2022-11-15T02:00:17;98694.09;;;15.13;nan
24666;BME280;29726;53.532;-1.478;2022-11-15T02:02:42;98682.72;;;15.06;nan
24666;BME280;29726;53.532;-1.478;2022-11-15T02:05:08;98685.97;;;15.10;nan
24666;BME280;29726;53.532;-1.478;2022-11-15T02:07:35;98678.41;;;15.05;nan
24666;BME280;29726;53.532;-1.478;2022-11-15T02:10:08;98679.91;;;15.06;nan
24666;BME280;29726;53.532;-1.478;2022-11-15T02:12:34;98676.47;;;15.00;nan
24666;BME280;29726;53.532;-1.478;2022-11-15T02:15:01;98678.19;;;15.03;nan
24666;BME280;29726;53.532;-1.478;2022-11-15T02:18:05;98669.56;;;15.01;nan
24666;BME280;29726;53.532;-1.478;2022-11-15T02:20:54;98665.56;;;14.97;nan
24666;BME280;29726;53.532;-1.478;2022-11-15T02:23:31;98665.03;;;14.98;nan
24666;BME280;29726;53.532;-1.478;2022-11-15T02:32:06;98652.38;;;14.92;nan
24666;BME280;29726;53.532;-1.478;2022-11-15T02:37:23;98645.03;;;14.89;nan
24666;BME280;29726;53.532;-1.478;2022-11-15T02:39:54;98636.41;;;14.87;nan
24666;BME280;29726;53.532;-1.478;2022-11-15T02:42:28;98632.63;;;14.84;nan
24666;BME280;29726;53.532;-1.478;2022-11-15T02:45:35;98623.75;;;14.80;nan
24666;BME280;29726;53.532;-1.478;2022-11-15T02:48:03;98612.53;;;14.80;nan
24666;BME280;29726;53.532;-1.478;2022-11-15T02:50:32;98611.00;;;14.79;nan
24666;BME280;29726;53.532;-1.478;2022-11-15T02:52:58;98596.00;;;14.77;nan
24666;BME280;29726;53.532;-1.478;2022-11-15T02:58:01;98590.94;;;14.75;nan
24666;BME280;29726;53.532;-1.478;2022-11-15T03:00:35;98563.38;;;14.61;nan
24666;BME280;29726;53.532;-1.478;2022-11-15T03:06:09;98572.13;;;14.70;nan
24666;BME280;29726;53.532;-1.478;2022-11-15T03:09:02;98559.50;;;14.64;nan
24666;BME280;29726;53.532;-1.478;2022-11-15T03:11:29;98558.22;;;14.65;nan
24666;BME280;29726;53.532;-1.478;2022-11-15T03:14:01;98534.47;;;14.53;nan
24666;BME280;29726;53.532;-1.478;2022-11-15T03:19:13;98532.28;;;14.59;nan
24666;BME280;29726;53.532;-1.478;2022-11-15T03:21:44;98540.91;;;14.61;nan
24666;BME280;29726;53.532;-1.478;2022-11-15T03:24:12;98532.28;;;14.59;nan
24666;BME280;29726;53.532;-1.478;2022-11-15T03:26:40;98531.34;;;14.56;nan
24666;BME280;29726;53.532;-1.478;2022-11-15T03:29:13;98530.03;;;14.57;nan
24666;BME280;29726;53.532;-1.478;2022-11-15T03:31:44;98529.06;;;14.55;nan
24666;BME280;29726;53.532;-1.478;2022-11-15T03:34:24;98520.97;;;14.51;nan
24666;BME280;29726;53.532;-1.478;2022-11-15T03:36:51;98520.41;;;14.53;nan
24666;BME280;29726;53.532;-1.478;2022-11-15T03:39:19;98521.09;;;14.46;nan
24666;BME280;29726;53.532;-1.478;2022-11-15T03:42:06;98531.44;;;14.51;nan
24666;BME280;29726;53.532;-1.478;2022-11-15T03:47:03;98518.50;;;14.48;nan
24666;BME280;29726;53.532;-1.478;2022-11-15T03:49:33;98514.19;;;14.47;nan
24666;BME280;29726;53.532;-1.478;2022-11-15T03:52:01;98507.06;;;14.46;nan
24666;BME280;29726;53.532;-1.478;2022-11-15T03:54:27;98513.97;;;14.45;nan
24666;BME280;29726;53.532;-1.478;2022-11-15T03:56:53;98500.47;;;14.43;nan
24666;BME280;29726;53.532;-1.478;2022-11-15T03:59:18;98496.69;;;14.41;nan
24666;BME280;29726;53.532;-1.478;2022-11-15T04:01:45;98500.25;;;14.41;nan
24666;BME280;29726;53.532;-1.478;2022-11-15T04:04:10;98498.00;;;14.40;nan
24666;BME280;29726;53.532;-1.478;2022-11-15T04:06:36;98502.84;;;14.39;nan
24666;BME280;29726;53.532;-1.478;2022-11-15T04:09:01;98495.72;;;14.38;nan
24666;BME280;29726;53.532;-1.478;2022-11-15T04:11:27;98493.44;;;14.37;nan
24666;BME280;29726;53.532;-1.478;2022-11-15T04:13:52;98486.31;;;14.36;nan
24666;BME280;29726;53.532;-1.478;2022-11-15T04:16:18;98477.69;;;14.34;nan
24666;BME280;29726;53.532;-1.478;2022-11-15T04:18:43;98470.03;;;14.34;nan
24666;BME280;29726;53.532;-1.478;2022-11-15T04:21:09;98464.22;;;14.32;nan
24666;BME280;29726;53.532;-1.478;2022-11-15T04:23:53;98467.03;;;14.32;nan
24666;BME280;29726;53.532;-1.478;2022-11-15T04:26:21;98451.47;;;14.31;nan
24666;BME280;29726;53.532;-1.478;2022-11-15T04:28:47;98452.31;;;14.26;nan
24666;BME280;29726;53.532;-1.478;2022-11-15T04:31:31;98456.44;;;14.25;nan
24666;BME280;29726;53.532;-1.478;2022-11-15T04:33:57;98458.72;;;14.27;nan
24666;BME280;29726;53.532;-1.478;2022-11-15T04:36:23;98444.47;;;14.25;nan
24666;BME280;29726;53.532;-1.478;2022-11-15T04:39:07;98450.81;;;14.25;nan
24666;BME280;29726;53.532;-1.478;2022-11-15T04:41:33;98440.16;;;14.24;nan
24666;BME280;29726;53.532;-1.478;2022-11-15T04:43:58;98432.25;;;14.22;nan
24666;BME280;29726;53.532;-1.478;2022-11-15T04:46:24;98433.56;;;14.21;nan
24666;BME280;29726;53.532;-1.478;2022-11-15T04:48:50;98438.44;;;14.21;nan
24666;BME280;29726;53.532;-1.478;2022-11-15T04:51:16;98423.63;;;14.20;nan
24666;BME280;29726;53.532;-1.478;2022-11-15T04:53:41;98429.03;;;14.18;nan
24666;BME280;29726;53.532;-1.478;2022-11-15T04:56:07;98430.53;;;14.19;nan
24666;BME280;29726;53.532;-1.478;2022-11-15T04:58:32;98436.72;;;14.18;nan
24666;BME280;29726;53.532;-1.478;2022-11-15T05:03:34;98406.16;;;14.14;nan
24666;BME280;29726;53.532;-1.478;2022-11-15T05:06:18;98420.91;;;14.15;nan
24666;BME280;29726;53.532;-1.478;2022-11-15T05:08:43;98414.56;;;14.14;nan
24666;BME280;29726;53.532;-1.478;2022-11-15T05:11:09;98410.03;;;14.11;nan
24666;BME280;29726;53.532;-1.478;2022-11-15T05:13:34;98408.75;;;14.12;nan
24666;BME280;29726;53.532;-1.478;2022-11-15T05:16:00;98392.63;;;14.13;nan
24666;BME280;29726;53.532;-1.478;2022-11-15T05:18:25;98385.88;;;14.08;nan
24666;BME280;29726;53.532;-1.478;2022-11-15T05:20:50;98380.78;;;14.07;nan
24666;BME280;29726;53.532;-1.478;2022-11-15T05:23:16;98388.88;;;14.10;nan
24666;BME280;29726;53.532;-1.478;2022-11-15T05:25:41;98378.19;;;14.09;nan
24666;BME280;29726;53.532;-1.478;2022-11-15T05:28:06;98370.56;;;14.09;nan
24666;BME280;29726;53.532;-1.478;2022-11-15T05:30:32;98368.28;;;14.08;nan
24666;BME280;29726;53.532;-1.478;2022-11-15T05:32:57;98359.84;;;14.08;nan
24666;BME280;29726;53.532;-1.478;2022-11-15T05:35:32;98353.50;;;14.07;nan
24666;BME280;29726;53.532;-1.478;2022-11-15T05:37:59;98333.22;;;14.01;nan
24666;BME280;29726;53.532;-1.478;2022-11-15T05:40:25;98347.91;;;14.07;nan
24666;BME280;29726;53.532;-1.478;2022-11-15T05:42:51;98347.13;;;14.07;nan
24666;BME280;29726;53.532;-1.478;2022-11-15T05:45:17;98339.28;;;14.05;nan
24666;BME280;29726;53.532;-1.478;2022-11-15T05:47:43;98337.75;;;14.04;nan
24666;BME280;29726;53.532;-1.478;2022-11-15T05:50:14;98327.28;;;14.05;nan
24666;BME280;29726;53.532;-1.478;2022-11-15T05:52:42;98311.53;;;14.02;nan
24666;BME280;29726;53.532;-1.478;2022-11-15T05:55:08;98323.50;;;14.02;nan
24666;BME280;29726;53.532;-1.478;2022-11-15T05:57:34;98315.84;;;14.03;nan
24666;BME280;29726;53.532;-1.478;2022-11-15T06:00:01;98310.34;;;13.97;nan
24666;BME280;29726;53.532;-1.478;2022-11-15T06:02:27;98310.78;;;14.01;nan
24666;BME280;29726;53.532;-1.478;2022-11-15T06:04:52;98309.25;;;14.00;nan
24666;BME280;29726;53.532;-1.478;2022-11-15T06:07:17;98300.84;;;14.00;nan
24666;BME280;29726;53.532;-1.478;2022-11-15T06:09:43;98302.16;;;13.99;nan
24666;BME280;29726;53.532;-1.478;2022-11-15T06:12:08;98297.84;;;13.98;nan
24666;BME280;29726;53.532;-1.478;2022-11-15T06:14:33;98297.09;;;13.98;nan
24666;BME280;29726;53.532;-1.478;2022-11-15T06:16:59;98294.28;;;13.98;nan
24666;BME280;29726;53.532;-1.478;2022-11-15T06:19:24;98292.22;;;13.98;nan
24666;BME280;29726;53.532;-1.478;2022-11-15T06:21:49;98281.56;;;13.97;nan
24666;BME280;29726;53.532;-1.478;2022-11-15T06:24:15;98279.28;;;13.95;nan
24666;BME280;29726;53.532;-1.478;2022-11-15T06:26:40;98273.28;;;13.91;nan
24666;BME280;29726;53.532;-1.478;2022-11-15T06:29:06;98267.34;;;13.95;nan
24666;BME280;29726;53.532;-1.478;2022-11-15T06:31:31;98268.63;;;13.94;nan
24666;BME280;29726;53.532;-1.478;2022-11-15T06:33:56;98260.97;;;13.94;nan
24666;BME280;29726;53.532;-1.478;2022-11-15T06:36:22;98253.44;;;13.89;nan
24666;BME280;29726;53.532;-1.478;2022-11-15T06:38:47;98249.53;;;13.92;nan
24666;BME280;29726;53.532;-1.478;2022-11-15T06:41:13;98249.00;;;13.94;nan
24666;BME280;29726;53.532;-1.478;2022-11-15T06:43:39;98248.25;;;13.93;nan
24666;BME280;29726;53.532;-1.478;2022-11-15T06:46:05;98248.25;;;13.93;nan
24666;BME280;29726;53.532;-1.478;2022-11-15T06:48:32;98242.22;;;13.89;nan
24666;BME280;29726;53.532;-1.478;2022-11-15T06:50:59;98252.88;;;13.91;nan
24666;BME280;29726;53.532;-1.478;2022-11-15T06:53:25;98236.03;;;13.91;nan
24666;BME280;29726;53.532;-1.478;2022-11-15T06:55:51;98228.00;;;13.87;nan
24666;BME280;29726;53.532;-1.478;2022-11-15T06:58:16;98219.56;;;13.87;nan
24666;BME280;29726;53.532;-1.478;2022-11-15T07:00:42;98217.72;;;13.90;nan
24666;BME280;29726;53.532;-1.478;2022-11-15T07:03:08;98214.50;;;13.86;nan
24666;BME280;29726;53.532;-1.478;2022-11-15T07:05:34;98223.88;;;13.88;nan
24666;BME280;29726;53.532;-1.478;2022-11-15T07:08:00;98208.16;;;13.85;nan
24666;BME280;29726;53.532;-1.478;2022-11-15T07:10:26;98208.56;;;13.89;nan
24666;BME280;29726;53.532;-1.478;2022-11-15T07:12:52;98202.19;;;13.89;nan
24666;BME280;29726;53.532;-1.478;2022-11-15T07:15:20;98195.84;;;13.88;nan
24666;BME280;29726;53.532;-1.478;2022-11-15T07:17:46;98192.25;;;13.88;nan
24666;BME280;29726;53.532;-1.478;2022-11-15T07:20:12;98193.03;;;13.88;nan
24666;BME280;29726;53.532;-1.478;2022-11-15T07:22:39;98182.34;;;13.87;nan
24666;BME280;29726;53.532;-1.478;2022-11-15T07:25:05;98171.91;;;13.87;nan
24666;BME280;29726;53.532;-1.478;2022-11-15T07:27:30;98173.19;;;13.86;nan
24666;BME280;29726;53.532;-1.478;2022-11-15T07:29:55;98173.94;;;13.87;nan
24666;BME280;29726;53.532;-1.478;2022-11-15T07:32:21;98169.63;;;13.86;nan
24666;BME280;29726;53.532;-1.478;2022-11-15T07:34:46;98171.13;;;13.87;nan
24666;BME280;29726;53.532;-1.478;2022-11-15T07:37:12;98176.75;;;13.87;nan
24666;BME280;29726;53.532;-1.478;2022-11-15T07:39:37;98166.81;;;13.86;nan
24666;BME280;29726;53.532;-1.478;2022-11-15T07:42:03;98168.88;;;13.85;nan
24666;BME280;29726;53.532;-1.478;2022-11-15T07:44:47;98158.78;;;13.82;nan
24666;BME280;29726;53.532;-1.478;2022-11-15T07:47:12;98154.88;;;13.85;nan
24666;BME280;29726;53.532;-1.478;2022-11-15T07:49:38;98157.66;;;13.85;nan
24666;BME280;29726;53.532;-1.478;2022-11-15T07:52:03;98153.16;;;13.82;nan
24666;BME280;29726;53.532;-1.478;2022-11-15T07:54:29;98150.75;;;13.86;nan
24666;BME280;29726;53.532;-1.478;2022-11-15T07:56:54;98146.47;;;13.85;nan
24666;BME280;29726;53.532;-1.478;2022-11-15T07:59:20;98135.25;;;13.85;nan
24666;BME280;29726;53.532;-1.478;2022-11-15T08:01:45;98135.97;;;13.86;nan
24666;BME280;29726;53.532;-1.478;2022-11-15T08:04:11;98135.97;;;13.86;nan
24666;BME280;29726;53.532;-1.478;2022-11-15T08:06:36;98131.13;;;13.86;nan
24666;BME280;29726;53.532;-1.478;2022-11-15T08:09:02;98133.94;;;13.86;nan
24666;BME280;29726;53.532;-1.478;2022-11-15T08:11:27;98126.81;;;13.85;nan
24666;BME280;29726;53.532;-1.478;2022-11-15T08:13:53;98115.63;;;13.85;nan
24666;BME280;29726;53.532;-1.478;2022-11-15T08:16:18;98117.66;;;13.85;nan
24666;BME280;29726;53.532;-1.478;2022-11-15T08:18:44;98116.16;;;13.84;nan
24666;BME280;29726;53.532;-1.478;2022-11-15T08:21:10;98119.16;;;13.86;nan
24666;BME280;29726;53.532;-1.478;2022-11-15T08:23:38;98107.19;;;13.85;nan
24666;BME280;29726;53.532;-1.478;2022-11-15T08:26:04;98119.91;;;13.86;nan
24666;BME280;29726;53.532;-1.478;2022-11-15T08:28:30;98102.31;;;13.86;nan
24666;BME280;29726;53.532;-1.478;2022-11-15T08:30:56;98099.53;;;13.86;nan
24666;BME280;29726;53.532;-1.478;2022-11-15T08:33:21;98107.41;;;13.87;nan
24666;BME280;29726;53.532;-1.478;2022-11-15T08:35:47;98103.09;;;13.86;nan
24666;BME280;29726;53.532;-1.478;2022-11-15T08:38:13;98091.88;;;13.86;nan
24666;BME280;29726;53.532;-1.478;2022-11-15T08:40:38;98089.81;;;13.87;nan
24666;BME280;29726;53.532;-1.478;2022-11-15T08:43:04;98077.22;;;13.80;nan
24666;BME280;29726;53.532;-1.478;2022-11-15T08:45:30;98081.41;;;13.87;nan
24666;BME280;29726;53.532;-1.478;2022-11-15T08:47:55;98075.78;;;13.87;nan
24666;BME280;29726;53.532;-1.478;2022-11-15T08:50:21;98074.47;;;13.88;nan
24666;BME280;29726;53.532;-1.478;2022-11-15T08:52:46;98062.53;;;13.87;nan
24666;BME280;29726;53.532;-1.478;2022-11-15T08:55:13;98033.06;;;13.73;nan
24666;BME280;29726;53.532;-1.478;2022-11-15T08:57:39;98057.84;;;13.90;nan
24666;BME280;29726;53.532;-1.478;2022-11-15T09:00:05;98023.72;;;13.71;nan
24666;BME280;29726;53.532;-1.478;2022-11-15T09:02:31;98053.00;;;13.90;nan
24666;BME280;29726;53.532;-1.478;2022-11-15T09:04:56;98050.22;;;13.90;nan
24666;BME280;29726;53.532;-1.478;2022-11-15T09:07:21;98039.00;;;13.90;nan
24666;BME280;29726;53.532;-1.478;2022-11-15T09:09:47;98037.69;;;13.91;nan
24666;BME280;29726;53.532;-1.478;2022-11-15T09:12:12;98041.22;;;13.92;nan
24666;BME280;29726;53.532;-1.478;2022-11-15T09:14:37;98026.47;;;13.91;nan
24666;BME280;29726;53.532;-1.478;2022-11-15T09:17:03;98019.56;;;13.92;nan
24666;BME280;29726;53.532;-1.478;2022-11-15T09:19:29;98013.56;;;13.88;nan
24666;BME280;29726;53.532;-1.478;2022-11-15T09:21:54;98003.50;;;13.93;nan
24666;BME280;29726;53.532;-1.478;2022-11-15T09:24:20;98005.75;;;13.94;nan
24666;BME280;29726;53.532;-1.478;2022-11-15T09:26:46;97998.09;;;13.95;nan
24666;BME280;29726;53.532;-1.478;2022-11-15T09:29:11;97983.31;;;13.94;nan
24666;BME280;29726;53.532;-1.478;2022-11-15T09:31:36;97986.09;;;13.94;nan
24666;BME280;29726;53.532;-1.478;2022-11-15T09:34:02;97987.81;;;13.97;nan
24666;BME280;29726;53.532;-1.478;2022-11-15T09:36:28;97973.03;;;13.97;nan
24666;BME280;29726;53.532;-1.478;2022-11-15T09:38:53;97969.66;;;13.98;nan
24666;BME280;29726;53.532;-1.478;2022-11-15T09:44:39;97967.06;;;14.00;nan
24666;BME280;29726;53.532;-1.478;2022-11-15T09:49:32;97954.53;;;14.01;nan
24666;BME280;29726;53.532;-1.478;2022-11-15T09:51:58;97938.81;;;13.98;nan
24666;BME280;29726;53.532;-1.478;2022-11-15T09:57:11;97943.13;;;13.99;nan
24666;BME280;29726;53.532;-1.478;2022-11-15T10:00:06;97941.47;;;14.04;nan
24666;BME280;29726;53.532;-1.478;2022-11-15T10:05:18;97934.56;;;14.05;nan
24666;BME280;29726;53.532;-1.478;2022-11-15T10:08:06;97913.06;;;14.07;nan
24666;BME280;29726;53.532;-1.478;2022-11-15T10:10:45;97896.25;;;14.07;nan
24666;BME280;29726;53.532;-1.478;2022-11-15T10:13:30;97893.44;;;14.07;nan
24666;BME280;29726;53.532;-1.478;2022-11-15T10:16:08;97897.75;;;14.08;nan
24666;BME280;29726;53.532;-1.478;2022-11-15T10:19:09;97897.94;;;14.10;nan
24666;BME280;29726;53.532;-1.478;2022-11-15T10:24:28;97883.16;;;14.10;nan
24666;BME280;29726;53.532;-1.478;2022-11-15T10:26:56;97869.31;;;14.12;nan
24666;BME280;29726;53.532;-1.478;2022-11-15T10:29:23;97864.09;;;14.08;nan
24666;BME280;29726;53.532;-1.478;2022-11-15T10:31:49;97852.47;;;14.12;nan
24666;BME280;29726;53.532;-1.478;2022-11-15T10:34:20;97853.25;;;14.12;nan
24666;BME280;29726;53.532;-1.478;2022-11-15T10:37:06;97842.56;;;14.11;nan
24666;BME280;29726;53.532;-1.478;2022-11-15T10:39:31;97847.31;;;14.16;nan
24666;BME280;29726;53.532;-1.478;2022-11-15T10:42:27;97843.75;;;14.15;nan
24666;BME280;29726;53.532;-1.478;2022-11-15T10:44:53;97831.97;;;14.17;nan
24666;BME280;29726;53.532;-1.478;2022-11-15T10:47:32;97832.72;;;14.17;nan
24666;BME280;29726;53.532;-1.478;2022-11-15T10:50:00;97814.16;;;14.14;nan
24666;BME280;29726;53.532;-1.478;2022-11-15T10:52:26;97825.78;;;14.18;nan
24666;BME280;29726;53.532;-1.478;2022-11-15T10:57:38;97805.63;;;14.20;nan
24666;BME280;29726;53.532;-1.478;2022-11-15T11:02:59;97794.59;;;14.22;nan
24666;BME280;29726;53.532;-1.478;2022-11-15T11:10:36;97756.78;;;14.23;nan
24666;BME280;29726;53.532;-1.478;2022-11-15T11:13:21;97754.19;;;14.25;nan
24666;BME280;29726;53.532;-1.478;2022-11-15T11:15:52;97758.47;;;14.26;nan
24666;BME280;29726;53.532;-1.478;2022-11-15T11:18:34;97755.13;;;14.27;nan
24666;BME280;29726;53.532;-1.478;2022-11-15T11:21:10;97727.81;;;14.28;nan
24666;BME280;29726;53.532;-1.478;2022-11-15T11:23:53;97734.91;;;14.29;nan
24666;BME280;29726;53.532;-1.478;2022-11-15T11:29:41;97719.75;;;14.32;nan
24666;BME280;29726;53.532;-1.478;2022-11-15T11:37:50;97709.47;;;14.34;nan
24666;BME280;29726;53.532;-1.478;2022-11-15T11:42:55;97695.63;;;14.36;nan
24666;BME280;29726;53.532;-1.478;2022-11-15T11:50:33;97700.31;;;14.41;nan
24666;BME280;29726;53.532;-1.478;2022-11-15T11:53:13;97685.53;;;14.41;nan
24666;BME280;29726;53.532;-1.478;2022-11-15T11:55:45;97680.66;;;14.41;nan
24666;BME280;29726;53.532;-1.478;2022-11-15T11:58:38;97671.69;;;14.43;nan
24666;BME280;29726;53.532;-1.478;2022-11-15T12:09:23;97657.25;;;14.46;nan
24666;BME280;29726;53.532;-1.478;2022-11-15T12:17:11;97650.53;;;14.49;nan
24666;BME280;29726;53.532;-1.478;2022-11-15T12:19:37;97641.19;;;14.39;nan
24666;BME280;29726;53.532;-1.478;2022-11-15T12:22:15;97649.97;;;14.51;nan
24666;BME280;29726;53.532;-1.478;2022-11-15T12:25:07;97655.78;;;14.53;nan
24666;BME280;29726;53.532;-1.478;2022-11-15T12:30:04;97639.69;;;14.53;nan
24666;BME280;29726;53.532;-1.478;2022-11-15T12:32:38;97644.00;;;14.54;nan
24666;BME280;29726;53.532;-1.478;2022-11-15T12:35:06;97641.38;;;14.56;nan
24666;BME280;29726;53.532;-1.478;2022-11-15T12:37:48;97638.56;;;14.56;nan
24666;BME280;29726;53.532;-1.478;2022-11-15T12:45:43;97634.63;;;14.59;nan
24666;BME280;29726;53.532;-1.478;2022-11-15T12:53:28;97629.91;;;14.62;nan
24666;BME280;29726;53.532;-1.478;2022-11-15T12:58:51;97612.53;;;14.63;nan
24666;BME280;29726;53.532;-1.478;2022-11-15T13:07:01;97608.03;;;14.68;nan
24666;BME280;29726;53.532;-1.478;2022-11-15T13:12:07;97592.09;;;14.70;nan
24666;BME280;29726;53.532;-1.478;2022-11-15T13:14:57;97585.16;;;14.71;nan
24666;BME280;29726;53.532;-1.478;2022-11-15T13:17:35;97579.56;;;14.71;nan
24666;BME280;29726;53.532;-1.478;2022-11-15T13:22:49;97567.75;;;14.73;nan
24666;BME280;29726;53.532;-1.478;2022-11-15T13:27:51;97570.75;;;14.75;nan
24666;BME280;29726;53.532;-1.478;2022-11-15T13:30:24;97565.13;;;14.75;nan
24666;BME280;29726;53.532;-1.478;2022-11-15T13:32:51;97558.97;;;14.76;nan
24666;BME280;29726;53.532;-1.478;2022-11-15T13:35:21;97564.59;;;14.76;nan
24666;BME280;29726;53.532;-1.478;2022-11-15T13:37:47;97566.06;;;14.77;nan
24666;BME280;29726;53.532;-1.478;2022-11-15T13:40:26;97560.63;;;14.79;nan
24666;BME280;29726;53.532;-1.478;2022-11-15T13:42:58;97545.84;;;14.79;nan
24666;BME280;29726;53.532;-1.478;2022-11-15T13:45:23;97548.09;;;14.80;nan
24666;BME280;29726;53.532;-1.478;2022-11-15T13:47:54;97537.03;;;14.82;nan
24666;BME280;29726;53.532;-1.478;2022-11-15T13:50:24;97534.22;;;14.82;nan
24666;BME280;29726;53.532;-1.478;2022-11-15T13:52:50;97534.41;;;14.84;nan
24666;BME280;29726;53.532;-1.478;2022-11-15T13:55:19;97528.78;;;14.84;nan
24666;BME280;29726;53.532;-1.478;2022-11-15T13:58:12;97528.22;;;14.86;nan
24666;BME280;29726;53.532;-1.478;2022-11-15T14:00:40;97527.47;;;14.85;nan
24666;BME280;29726;53.532;-1.478;2022-11-15T14:03:19;97520.53;;;14.86;nan
24666;BME280;29726;53.532;-1.478;2022-11-15T14:06:06;97513.03;;;14.89;nan
24666;BME280;29726;53.532;-1.478;2022-11-15T14:08:34;97506.09;;;14.90;nan
24666;BME280;29726;53.532;-1.478;2022-11-15T14:13:39;97507.78;;;14.93;nan
24666;BME280;29726;53.532;-1.478;2022-11-15T14:16:18;97499.72;;;14.89;nan
24666;BME280;29726;53.532;-1.478;2022-11-15T14:18:51;97472.44;;;14.82;nan
24666;BME280;29726;53.532;-1.478;2022-11-15T14:21:18;97479.47;;;14.98;nan
24666;BME280;29726;53.532;-1.478;2022-11-15T14:23:44;97492.19;;;14.99;nan
24666;BME280;29726;53.532;-1.478;2022-11-15T14:26:33;97498.00;;;15.01;nan
24666;BME280;29726;53.532;-1.478;2022-11-15T14:29:24;97474.22;;;15.02;nan
24666;BME280;29726;53.532;-1.478;2022-11-15T14:31:50;97471.94;;;15.00;nan
24666;BME280;29726;53.532;-1.478;2022-11-15T14:34:16;97479.06;;;15.01;nan
24666;BME280;29726;53.532;-1.478;2022-11-15T14:36:41;97495.53;;;15.05;nan
24666;BME280;29726;53.532;-1.478;2022-11-15T14:39:07;97509.75;;;15.07;nan
24666;BME280;29726;53.532;-1.478;2022-11-15T14:41:36;97502.81;;;15.08;nan
24666;BME280;29726;53.532;-1.478;2022-11-15T14:44:05;97497.19;;;15.08;nan
24666;BME280;29726;53.532;-1.478;2022-11-15T14:46:31;97496.22;;;15.13;nan
24666;BME280;29726;53.532;-1.478;2022-11-15T14:48:57;97493.59;;;15.15;nan
24666;BME280;29726;53.532;-1.478;2022-11-15T14:51:23;97488.38;;;15.11;nan
24666;BME280;29726;53.532;-1.478;2022-11-15T14:53:48;97492.69;;;15.12;nan
24666;BME280;29726;53.532;-1.478;2022-11-15T14:56:14;97498.06;;;15.18;nan
24666;BME280;29726;53.532;-1.478;2022-11-15T14:58:41;97500.69;;;15.16;nan
24666;BME280;29726;53.532;-1.478;2022-11-15T15:01:20;97493.19;;;15.18;nan
24666;BME280;29726;53.532;-1.478;2022-11-15T15:03:46;97492.44;;;15.18;nan
24666;BME280;29726;53.532;-1.478;2022-11-15T15:06:12;97499.94;;;15.23;nan
24666;BME280;29726;53.532;-1.478;2022-11-15T15:08:39;97499.75;;;15.21;nan
24666;BME280;29726;53.532;-1.478;2022-11-15T15:11:13;97512.06;;;15.25;nan
24666;BME280;29726;53.532;-1.478;2022-11-15T15:13:39;97508.69;;;15.27;nan